Time;durP1;ratioP1;P1;durP2;ratioP2;P2;SDS_P1;SDS_P2;PMS_P1;PMS_P2;Temp;Humidity;BMP_temperature;BMP_pressure;BME280_temperature;BME280_humidity;BME280_pressure;Samples;Min_cycle;Max_cycle;Signal;HPM_P1;HPM_P2
2022/10/14 00:01:57;;;;;;;7.68;4.75;;;;;;;;;;5117568;28;20126;-73
2022/10/14 00:04:43;;;;;;;6.60;4.43;;;;;;;;;;5116545;28;20351;-74
2022/10/14 00:07:29;;;;;;;6.07;3.90;;;;;;;;;;5116490;28;20023;-74
2022/10/14 00:10:14;;;;;;;6.53;4.18;;;;;;;;;;5117350;28;20055;-73
2022/10/14 00:13:00;;;;;;;6.60;4.10;;;;;;;;;;5116946;28;20088;-75
2022/10/14 00:15:45;;;;;;;9.65;4.45;;;;;;;;;;5103881;28;20348;-75
2022/10/14 00:18:31;;;;;;;6.22;4.05;;;;;;;;;;5102522;28;20027;-74
2022/10/14 00:21:17;;;;;;;7.90;4.30;;;;;;;;;;5116860;28;20036;-74
2022/10/14 00:24:03;;;;;;;9.98;4.10;;;;;;;;;;5117060;28;20043;-74
2022/10/14 00:26:48;;;;;;;8.85;4.38;;;;;;;;;;5116737;28;20340;-74
2022/10/14 00:29:34;;;;;;;6.25;4.60;;;;;;;;;;5116337;28;20454;-73
2022/10/14 00:32:19;;;;;;;6.25;4.05;;;;;;;;;;5101446;28;20169;-74
2022/10/14 00:35:05;;;;;;;7.30;4.07;;;;;;;;;;5115304;28;20016;-74
2022/10/14 00:37:51;;;;;;;7.10;3.97;;;;;;;;;;5114977;28;20026;-74
2022/10/14 00:40:36;;;;;;;7.57;4.13;;;;;;;;;;5116611;28;20107;-75
2022/10/14 00:43:22;;;;;;;6.43;3.95;;;;;;;;;;5116077;28;20019;-75
2022/10/14 00:46:10;;;;;;;9.23;4.10;;;;;;;;;;5115657;28;20020;-75
2022/10/14 00:48:57;;;;;;;8.88;5.38;;;;;;;;;;5115529;28;20080;-74
2022/10/14 00:51:46;;;;;;;9.05;4.97;;;;;;;;;;5116052;28;20084;-74
2022/10/14 00:54:33;;;;;;;11.38;4.70;;;;;;;;;;5115232;28;20464;-75
2022/10/14 00:57:20;;;;;;;14.52;4.80;;;;;;;;;;5115594;28;20016;-74
2022/10/14 01:00:14;;;;;;;11.77;4.60;;;;;;;;;;5099570;28;20443;-74
2022/10/14 01:02:59;;;;;;;6.70;4.15;;;;;;;;;;5115594;28;20397;-74
2022/10/14 01:05:50;;;;;;;8.00;4.40;;;;;;;;;;5115944;28;20031;-74
2022/10/14 01:08:40;;;;;;;8.50;4.32;;;;;;;;;;5116158;28;20089;-74
2022/10/14 01:11:26;;;;;;;11.05;5.38;;;;;;;;;;5114926;28;20019;-74
2022/10/14 01:14:24;;;;;;;8.13;4.38;;;;;;;;;;5115779;28;20069;-74
2022/10/14 01:17:14;;;;;;;11.52;5.00;;;;;;;;;;5115580;28;20110;-74
2022/10/14 01:20:06;;;;;;;16.63;5.13;;;;;;;;;;5115786;28;20022;-75
2022/10/14 01:23:04;;;;;;;11.82;5.22;;;;;;;;;;5115935;28;20107;-74
2022/10/14 01:25:52;;;;;;;15.65;6.25;;;;;;;;;;5114584;28;20016;-74
2022/10/14 01:29:01;;;;;;;9.85;5.15;;;;;;;;;;5102153;27;20019;-75
2022/10/14 01:31:49;;;;;;;11.40;5.85;;;;;;;;;;5100871;28;20106;-74
2022/10/14 01:34:41;;;;;;;12.07;5.45;;;;;;;;;;5094719;28;20030;-74
2022/10/14 01:37:28;;;;;;;10.38;5.35;;;;;;;;;;5115341;28;20042;-75
2022/10/14 01:40:20;;;;;;;9.68;5.05;;;;;;;;;;5115468;28;20020;-75
2022/10/14 01:43:06;;;;;;;9.40;5.43;;;;;;;;;;5116374;28;20020;-75
2022/10/14 01:45:53;;;;;;;11.90;5.90;;;;;;;;;;5114568;28;20016;-75
2022/10/14 01:48:43;;;;;;;9.63;5.40;;;;;;;;;;5115457;28;20016;-75
2022/10/14 01:51:35;;;;;;;9.10;5.35;;;;;;;;;;5119903;28;20031;-75
2022/10/14 01:54:23;;;;;;;8.25;4.95;;;;;;;;;;5119480;28;20055;-76
2022/10/14 01:57:15;;;;;;;8.75;4.88;;;;;;;;;;5119293;28;20028;-74
2022/10/14 02:00:01;;;;;;;10.65;4.95;;;;;;;;;;5119432;28;20028;-75
2022/10/14 02:02:47;;;;;;;9.25;4.47;;;;;;;;;;5119447;28;20047;-73
2022/10/14 02:05:36;;;;;;;8.50;4.10;;;;;;;;;;5119349;28;20019;-74
2022/10/14 02:08:24;;;;;;;6.38;3.97;;;;;;;;;;5119965;28;20019;-74
2022/10/14 02:11:11;;;;;;;8.13;3.97;;;;;;;;;;5119125;28;20084;-75
2022/10/14 02:14:07;;;;;;;8.45;4.40;;;;;;;;;;5103325;28;20028;-74
2022/10/14 02:16:57;;;;;;;7.78;4.00;;;;;;;;;;5119146;28;20436;-75
2022/10/14 02:19:47;;;;;;;8.45;4.20;;;;;;;;;;5119253;28;20457;-75
2022/10/14 02:22:36;;;;;;;11.35;5.03;;;;;;;;;;5119529;28;20024;-75
2022/10/14 02:25:33;;;;;;;11.40;4.45;;;;;;;;;;5118902;28;20077;-75
2022/10/14 02:28:20;;;;;;;7.30;4.43;;;;;;;;;;5119035;28;20030;-75
2022/10/14 02:31:08;;;;;;;8.60;5.30;;;;;;;;;;5118818;28;20038;-74
2022/10/14 02:33:56;;;;;;;7.88;4.30;;;;;;;;;;5118794;28;20366;-74
2022/10/14 02:36:42;;;;;;;10.50;4.93;;;;;;;;;;5118614;28;20027;-74
2022/10/14 02:39:34;;;;;;;10.25;4.60;;;;;;;;;;5119069;28;20114;-73
2022/10/14 02:42:19;;;;;;;7.78;4.95;;;;;;;;;;5118925;28;20035;-74
2022/10/14 02:45:06;;;;;;;8.95;4.93;;;;;;;;;;5118587;28;20114;-74
2022/10/14 02:47:52;;;;;;;12.68;5.20;;;;;;;;;;5118745;28;20020;-75
2022/10/14 02:50:38;;;;;;;13.45;4.95;;;;;;;;;;5118807;28;20019;-75
2022/10/14 02:53:24;;;;;;;8.95;4.93;;;;;;;;;;5118742;28;20030;-75
2022/10/14 02:56:13;;;;;;;10.88;5.18;;;;;;;;;;5080469;27;20474;-75
2022/10/14 02:58:58;;;;;;;8.90;5.10;;;;;;;;;;5097294;28;20352;-75
2022/10/14 03:01:44;;;;;;;12.50;5.03;;;;;;;;;;5096457;28;20467;-74
2022/10/14 03:04:30;;;;;;;7.55;4.20;;;;;;;;;;5097453;28;20103;-75
2022/10/14 03:07:15;;;;;;;10.23;4.68;;;;;;;;;;5096930;28;20097;-75
2022/10/14 03:10:01;;;;;;;9.70;4.80;;;;;;;;;;5082050;28;20020;-75
2022/10/14 03:12:47;;;;;;;9.43;4.10;;;;;;;;;;5081031;28;20031;-75
2022/10/14 03:15:32;;;;;;;8.65;4.28;;;;;;;;;;5080333;28;20023;-75
2022/10/14 03:18:18;;;;;;;7.70;3.95;;;;;;;;;;5080800;28;20350;-75
2022/10/14 03:21:04;;;;;;;6.70;4.00;;;;;;;;;;5081736;28;20030;-74
2022/10/14 03:23:49;;;;;;;6.55;4.00;;;;;;;;;;5097029;28;20466;-75
2022/10/14 03:26:35;;;;;;;7.57;3.78;;;;;;;;;;5095599;28;20111;-73
2022/10/14 03:29:20;;;;;;;8.90;3.47;;;;;;;;;;5096960;28;20024;-75
2022/10/14 03:32:06;;;;;;;7.85;3.58;;;;;;;;;;5096231;28;20034;-76
2022/10/14 03:34:52;;;;;;;6.60;3.60;;;;;;;;;;5095326;28;20448;-74
2022/10/14 03:37:37;;;;;;;6.70;3.75;;;;;;;;;;5096344;28;20517;-74
2022/10/14 03:40:23;;;;;;;6.78;4.20;;;;;;;;;;5081330;28;20031;-74
2022/10/14 03:43:08;;;;;;;6.47;3.58;;;;;;;;;;5095452;28;20020;-74
2022/10/14 03:45:54;;;;;;;6.72;3.65;;;;;;;;;;5095144;28;20104;-75
2022/10/14 03:48:39;;;;;;;6.57;4.00;;;;;;;;;;5096570;28;20077;-74
2022/10/14 03:51:25;;;;;;;7.38;4.15;;;;;;;;;;5080812;28;20455;-74
2022/10/14 03:54:11;;;;;;;7.30;4.90;;;;;;;;;;5095017;28;20055;-75
2022/10/14 03:56:56;;;;;;;15.63;8.18;;;;;;;;;;5096236;28;20448;-75
2022/10/14 03:59:42;;;;;;;9.63;5.30;;;;;;;;;;5096073;28;20020;-74
2022/10/14 04:02:27;;;;;;;9.63;5.57;;;;;;;;;;5098137;28;20027;-74
2022/10/14 04:05:13;;;;;;;9.77;4.70;;;;;;;;;;5098800;28;20103;-73
2022/10/14 04:08:02;;;;;;;10.00;5.20;;;;;;;;;;5081188;28;20023;-75
2022/10/14 04:10:54;;;;;;;7.90;4.70;;;;;;;;;;5096450;28;20024;-73
2022/10/14 04:13:39;;;;;;;9.70;5.20;;;;;;;;;;5094988;28;20027;-73
2022/10/14 04:16:26;;;;;;;9.23;4.97;;;;;;;;;;5095577;28;20081;-73
2022/10/14 04:19:11;;;;;;;10.93;5.13;;;;;;;;;;5096093;28;20028;-73
2022/10/14 04:21:57;;;;;;;7.15;4.72;;;;;;;;;;5096425;28;20012;-74
2022/10/14 04:24:42;;;;;;;9.98;4.68;;;;;;;;;;5094976;28;20077;-73
2022/10/14 04:27:28;;;;;;;11.68;5.30;;;;;;;;;;5095977;28;20024;-74
2022/10/14 04:30:13;;;;;;;11.43;5.20;;;;;;;;;;5096253;28;20084;-74
2022/10/14 04:32:59;;;;;;;13.20;4.95;;;;;;;;;;5095233;28;20039;-74
2022/10/14 04:35:45;;;;;;;12.50;5.72;;;;;;;;;;5095728;28;20058;-73
2022/10/14 04:38:31;;;;;;;13.50;5.38;;;;;;;;;;5094925;28;20043;-75
2022/10/14 04:41:16;;;;;;;12.05;4.95;;;;;;;;;;5094328;28;20020;-74
2022/10/14 04:44:02;;;;;;;7.60;4.93;;;;;;;;;;5095157;28;20012;-75
2022/10/14 04:46:47;;;;;;;11.73;4.70;;;;;;;;;;5095616;28;20008;-75
2022/10/14 04:49:33;;;;;;;9.73;4.70;;;;;;;;;;5081000;28;20027;-75
2022/10/14 04:52:19;;;;;;;9.90;4.93;;;;;;;;;;5095446;28;20024;-74
2022/10/14 04:55:05;;;;;;;9.77;4.82;;;;;;;;;;5105394;28;20483;-75
2022/10/14 04:57:50;;;;;;;10.38;4.55;;;;;;;;;;5115466;28;20032;-75
2022/10/14 05:00:37;;;;;;;11.75;4.70;;;;;;;;;;5101473;28;20043;-75
2022/10/14 05:03:23;;;;;;;11.98;4.93;;;;;;;;;;5115597;28;20055;-74
2022/10/14 05:06:09;;;;;;;12.95;4.97;;;;;;;;;;5115175;28;20024;-75
2022/10/14 05:08:54;;;;;;;12.57;5.32;;;;;;;;;;5116107;28;20015;-76
2022/10/14 05:11:40;;;;;;;11.55;5.20;;;;;;;;;;5115283;28;20012;-76
2022/10/14 05:14:25;;;;;;;9.43;5.53;;;;;;;;;;5115602;28;20114;-75
2022/10/14 05:17:11;;;;;;;11.85;6.43;;;;;;;;;;5100999;28;20072;-75
2022/10/14 05:19:57;;;;;;;16.08;6.70;;;;;;;;;;5100620;28;20032;-75
2022/10/14 05:22:43;;;;;;;15.38;6.88;;;;;;;;;;5114358;28;20015;-75
2022/10/14 05:25:29;;;;;;;14.18;6.80;;;;;;;;;;5115339;28;20020;-75
2022/10/14 05:28:15;;;;;;;15.13;7.45;;;;;;;;;;5116019;28;20061;-75
2022/10/14 05:31:00;;;;;;;15.85;8.00;;;;;;;;;;5114829;28;20031;-76
2022/10/14 05:33:46;;;;;;;19.95;8.13;;;;;;;;;;5114485;28;20102;-75
2022/10/14 05:36:32;;;;;;;22.77;8.50;;;;;;;;;;5115798;28;20026;-75
2022/10/14 05:39:17;;;;;;;23.25;9.05;;;;;;;;;;5114704;28;20393;-75
2022/10/14 05:42:03;;;;;;;19.65;10.00;;;;;;;;;;5114140;28;20016;-74
2022/10/14 05:44:48;;;;;;;20.02;9.48;;;;;;;;;;5115190;28;20024;-75
2022/10/14 05:47:34;;;;;;;27.25;9.15;;;;;;;;;;5114441;28;20358;-74
2022/10/14 05:50:20;;;;;;;20.25;7.97;;;;;;;;;;5100369;28;20448;-75
2022/10/14 05:53:06;;;;;;;14.40;7.93;;;;;;;;;;5115503;28;20440;-76
2022/10/14 05:55:51;;;;;;;20.75;8.15;;;;;;;;;;5082922;28;20048;-74
2022/10/14 05:58:37;;;;;;;19.92;8.27;;;;;;;;;;5094193;28;20050;-75
2022/10/14 06:01:23;;;;;;;20.52;9.02;;;;;;;;;;5093976;28;20020;-74
2022/10/14 06:04:14;;;;;;;27.85;9.30;;;;;;;;;;5093521;28;20016;-76
2022/10/14 06:07:00;;;;;;;22.77;9.63;;;;;;;;;;5093869;28;20039;-75
2022/10/14 06:09:46;;;;;;;16.95;9.07;;;;;;;;;;5094484;28;20028;-75
2022/10/14 06:12:31;;;;;;;31.17;13.63;;;;;;;;;;5093620;28;20417;-74
2022/10/14 06:15:17;;;;;;;34.03;14.90;;;;;;;;;;5094049;28;20024;-74
2022/10/14 06:18:03;;;;;;;25.55;12.35;;;;;;;;;;5093671;28;20545;-74
2022/10/14 06:20:52;;;;;;;32.08;12.13;;;;;;;;;;5093999;28;20436;-75
2022/10/14 06:23:37;;;;;;;24.17;9.73;;;;;;;;;;5079133;28;20111;-74
2022/10/14 06:26:23;;;;;;;22.88;8.48;;;;;;;;;;5093807;28;20028;-74
2022/10/14 06:29:09;;;;;;;21.70;8.25;;;;;;;;;;5093741;28;20051;-75
2022/10/14 06:31:55;;;;;;;31.40;8.80;;;;;;;;;;5079398;28;20090;-74
2022/10/14 06:34:40;;;;;;;19.88;8.10;;;;;;;;;;5093238;28;20385;-74
2022/10/14 06:37:26;;;;;;;18.23;7.80;;;;;;;;;;5097860;28;20102;-74
2022/10/14 06:40:11;;;;;;;19.75;7.95;;;;;;;;;;5097605;28;20180;-74
2022/10/14 06:42:58;;;;;;;15.23;8.10;;;;;;;;;;5097708;28;20462;-74
2022/10/14 06:45:43;;;;;;;17.00;8.05;;;;;;;;;;5097775;28;20032;-74
2022/10/14 06:48:29;;;;;;;16.27;8.07;;;;;;;;;;5097853;28;20016;-74
2022/10/14 06:51:14;;;;;;;22.35;9.10;;;;;;;;;;5082863;28;20110;-73
2022/10/14 06:54:00;;;;;;;23.48;9.23;;;;;;;;;;5097599;28;20020;-74
2022/10/14 06:56:45;;;;;;;25.10;10.88;;;;;;;;;;5082511;28;20036;-74
2022/10/14 06:59:31;;;;;;;24.05;10.32;;;;;;;;;;5098052;28;20020;-74
2022/10/14 07:02:17;;;;;;;20.42;9.48;;;;;;;;;;5083362;28;20020;-74
2022/10/14 07:05:03;;;;;;;25.38;10.73;;;;;;;;;;5082867;28;20069;-73
2022/10/14 07:07:48;;;;;;;20.65;9.68;;;;;;;;;;5097336;28;20042;-74
2022/10/14 07:10:34;;;;;;;24.70;12.70;;;;;;;;;;5098079;28;20069;-75
2022/10/14 07:13:19;;;;;;;28.27;11.70;;;;;;;;;;5097080;28;20043;-74
2022/10/14 07:16:05;;;;;;;27.70;12.50;;;;;;;;;;5098605;28;20035;-75
2022/10/14 07:18:51;;;;;;;25.95;11.73;;;;;;;;;;5098253;28;20028;-74
2022/10/14 07:21:36;;;;;;;28.73;11.73;;;;;;;;;;5097472;28;20017;-74
2022/10/14 07:24:25;;;;;;;29.02;12.18;;;;;;;;;;5083316;28;20012;-75
2022/10/14 07:27:10;;;;;;;28.65;15.00;;;;;;;;;;5096759;28;20047;-73
2022/10/14 07:29:56;;;;;;;28.95;13.52;;;;;;;;;;5096576;28;20012;-74
2022/10/14 07:32:42;;;;;;;33.92;16.50;;;;;;;;;;5097373;28;20505;-75
2022/10/14 07:35:27;;;;;;;36.50;17.13;;;;;;;;;;5082569;28;20032;-74
2022/10/14 07:38:13;;;;;;;31.20;17.88;;;;;;;;;;5097909;28;20452;-74
2022/10/14 07:41:00;;;;;;;25.65;15.88;;;;;;;;;;5083709;28;20020;-74
2022/10/14 07:43:46;;;;;;;25.63;16.65;;;;;;;;;;5097032;28;20325;-74
2022/10/14 07:46:37;;;;;;;31.27;16.77;;;;;;;;;;5096907;28;20510;-74
2022/10/14 07:49:23;;;;;;;28.65;15.93;;;;;;;;;;5082271;28;20028;-75
2022/10/14 07:52:08;;;;;;;26.55;16.40;;;;;;;;;;5097202;28;20032;-74
2022/10/14 07:54:54;;;;;;;39.25;18.75;;;;;;;;;;5106365;28;20043;-75
2022/10/14 07:57:40;;;;;;;34.55;18.52;;;;;;;;;;5116558;28;20023;-74
2022/10/14 08:00:25;;;;;;;28.05;18.27;;;;;;;;;;5117515;28;20111;-75
2022/10/14 08:03:11;;;;;;;28.17;16.23;;;;;;;;;;5117112;28;20068;-74
2022/10/14 08:06:01;;;;;;;29.63;16.80;;;;;;;;;;5116501;28;20020;-74
2022/10/14 08:08:47;;;;;;;32.72;18.90;;;;;;;;;;5117844;28;20034;-73
2022/10/14 08:11:33;;;;;;;31.60;18.88;;;;;;;;;;5117344;28;20452;-75
2022/10/14 08:14:18;;;;;;;37.30;18.58;;;;;;;;;;5116136;28;20035;-75
2022/10/14 08:17:04;;;;;;;29.42;17.35;;;;;;;;;;5120522;28;20016;-74
2022/10/14 08:19:50;;;;;;;31.30;18.42;;;;;;;;;;5118998;28;20023;-73
2022/10/14 08:22:35;;;;;;;30.48;17.58;;;;;;;;;;5121684;28;20028;-74
2022/10/14 08:25:21;;;;;;;33.83;17.05;;;;;;;;;;5117183;28;20025;-75
2022/10/14 08:28:08;;;;;;;28.52;16.48;;;;;;;;;;5117859;28;20034;-75
2022/10/14 08:30:53;;;;;;;29.33;16.45;;;;;;;;;;5101468;28;20023;-74
2022/10/14 08:33:39;;;;;;;38.67;20.20;;;;;;;;;;5116711;28;20015;-74
2022/10/14 08:36:25;;;;;;;29.20;16.85;;;;;;;;;;5116657;28;20015;-73
2022/10/14 08:39:10;;;;;;;31.83;16.60;;;;;;;;;;5102422;28;20015;-74
2022/10/14 08:42:16;;;;;;;24.85;14.30;;;;;;;;;;5117235;28;20177;-75
2022/10/14 08:45:07;;;;;;;25.10;15.13;;;;;;;;;;5117031;28;20381;-74
2022/10/14 08:47:55;;;;;;;28.98;13.90;;;;;;;;;;5100462;28;20092;-75
2022/10/14 08:50:53;;;;;;;23.15;13.57;;;;;;;;;;5117444;27;20023;-73
2022/10/14 08:53:48;;;;;;;24.63;14.48;;;;;;;;;;5117174;28;20024;-75
2022/10/14 08:56:34;;;;;;;22.67;12.32;;;;;;;;;;5103346;28;20058;-74
2022/10/14 08:59:21;;;;;;;18.67;10.65;;;;;;;;;;5102204;28;20432;-74
2022/10/14 09:02:13;;;;;;;21.92;12.02;;;;;;;;;;5116513;28;20019;-76
2022/10/14 09:04:59;;;;;;;20.00;10.35;;;;;;;;;;5102069;28;20043;-74
2022/10/14 09:07:45;;;;;;;22.98;9.93;;;;;;;;;;5117659;28;20038;-74
2022/10/14 09:10:35;;;;;;;19.13;11.75;;;;;;;;;;5102710;28;20367;-75
2022/10/14 09:13:26;;;;;;;20.38;11.55;;;;;;;;;;5100928;28;20042;-75
2022/10/14 09:16:19;;;;;;;23.55;10.90;;;;;;;;;;5103107;28;20347;-74
2022/10/14 09:19:11;;;;;;;18.58;10.35;;;;;;;;;;5101591;28;20024;-75
2022/10/14 09:21:58;;;;;;;21.25;11.75;;;;;;;;;;5116061;28;20047;-74
2022/10/14 09:24:45;;;;;;;21.83;11.20;;;;;;;;;;5116140;28;20024;-74
2022/10/14 09:27:32;;;;;;;18.13;10.80;;;;;;;;;;5116160;28;20023;-74
2022/10/14 09:30:18;;;;;;;17.63;11.23;;;;;;;;;;5114309;28;20474;-76
2022/10/14 09:33:04;;;;;;;20.90;12.75;;;;;;;;;;5115846;28;20364;-75
2022/10/14 09:35:50;;;;;;;18.27;11.60;;;;;;;;;;5115249;28;20378;-75
2022/10/14 09:38:35;;;;;;;18.30;10.57;;;;;;;;;;5116114;28;20019;-74
2022/10/14 09:41:23;;;;;;;16.23;9.90;;;;;;;;;;5115197;28;20043;-75
2022/10/14 09:44:24;;;;;;;15.68;10.30;;;;;;;;;;5100009;28;20304;-75
2022/10/14 09:47:11;;;;;;;16.88;9.77;;;;;;;;;;5115360;28;20029;-74
2022/10/14 09:49:59;;;;;;;15.88;9.45;;;;;;;;;;5117133;28;20020;-74
2022/10/14 09:52:48;;;;;;;19.40;11.90;;;;;;;;;;5118185;28;20030;-74
2022/10/14 09:55:34;;;;;;;15.77;9.18;;;;;;;;;;5114838;28;20079;-74
2022/10/14 09:58:31;;;;;;;15.55;8.75;;;;;;;;;;5115841;28;20039;-74
2022/10/14 10:01:37;;;;;;;18.33;9.05;;;;;;;;;;5115936;28;20031;-72
2022/10/14 10:04:33;;;;;;;14.32;7.93;;;;;;;;;;5115492;28;20092;-75
2022/10/14 10:07:28;;;;;;;10.82;6.68;;;;;;;;;;5114785;28;20102;-74
2022/10/14 10:10:19;;;;;;;14.30;7.00;;;;;;;;;;5116284;28;20049;-73
2022/10/14 10:13:19;;;;;;;14.88;8.80;;;;;;;;;;5119308;28;20028;-75
2022/10/14 10:16:05;;;;;;;14.15;8.32;;;;;;;;;;5119499;28;20332;-74
2022/10/14 10:18:52;;;;;;;12.98;7.15;;;;;;;;;;5103250;28;20024;-75
2022/10/14 10:21:38;;;;;;;12.32;6.78;;;;;;;;;;5098438;28;20019;-75
2022/10/14 10:24:24;;;;;;;17.98;7.78;;;;;;;;;;5106612;27;20027;-75
2022/10/14 10:27:25;;;;;;;13.02;7.20;;;;;;;;;;5106308;27;20042;-75
2022/10/14 10:30:22;;;;;;;16.75;7.93;;;;;;;;;;5118899;28;20026;-74
2022/10/14 10:33:11;;;;;;;15.32;7.75;;;;;;;;;;5103662;28;20019;-75
2022/10/14 10:36:12;;;;;;;16.10;7.60;;;;;;;;;;5117960;28;20020;-75
2022/10/14 10:39:23;;;;;;;12.60;6.82;;;;;;;;;;5104377;28;20035;-75
2022/10/14 10:42:14;;;;;;;13.15;7.10;;;;;;;;;;5118588;28;20073;-75
2022/10/14 10:45:15;;;;;;;13.65;6.28;;;;;;;;;;5104541;28;20019;-75
2022/10/14 10:48:06;;;;;;;15.00;6.13;;;;;;;;;;5119946;28;20015;-75
2022/10/14 10:50:58;;;;;;;10.18;5.45;;;;;;;;;;5105097;28;20070;-74
2022/10/14 10:53:50;;;;;;;9.30;5.55;;;;;;;;;;5119439;28;20024;-74
2022/10/14 10:56:38;;;;;;;10.50;5.68;;;;;;;;;;5112225;28;20370;-74
2022/10/14 10:59:38;;;;;;;7.63;5.45;;;;;;;;;;5118645;28;20289;-75
2022/10/14 11:02:56;;;;;;;9.00;5.60;;;;;;;;;;5118559;28;20023;-72
2022/10/14 11:05:57;;;;;;;10.98;5.45;;;;;;;;;;5110961;28;20023;-73
2022/10/14 11:12:02;;;;;;;11.65;5.63;;;;;;;;;;5117939;28;20027;-74
2022/10/14 11:15:01;;;;;;;11.30;5.78;;;;;;;;;;5117509;28;20345;-73
2022/10/14 11:17:55;;;;;;;9.15;5.20;;;;;;;;;;5101840;28;20019;-73
2022/10/14 11:20:41;;;;;;;7.40;5.25;;;;;;;;;;5100505;28;20054;-73
2022/10/14 11:23:33;;;;;;;11.57;6.40;;;;;;;;;;5102854;28;20019;-75
2022/10/14 11:38:25;;;;;;;9.15;4.97;;;;;;;;;;5132740;27;20361;-72
2022/10/14 11:41:17;;;;;;;8.02;4.82;;;;;;;;;;5152328;27;20050;-72
2022/10/14 11:44:10;;;;;;;7.63;5.00;;;;;;;;;;5151228;27;20083;-71
2022/10/14 11:46:58;;;;;;;6.00;4.97;;;;;;;;;;5151816;27;20398;-72
2022/10/14 11:49:56;;;;;;;7.30;4.55;;;;;;;;;;5137475;27;20076;-72
2022/10/14 11:52:44;;;;;;;9.20;4.55;;;;;;;;;;5137096;27;20098;-70
2022/10/14 11:55:34;;;;;;;7.30;5.05;;;;;;;;;;5136745;27;20019;-71
2022/10/14 11:58:23;;;;;;;7.95;4.80;;;;;;;;;;5152606;27;20109;-70
2022/10/14 12:01:15;;;;;;;5.25;4.53;;;;;;;;;;5152244;27;20102;-70
2022/10/14 12:04:05;;;;;;;7.95;4.78;;;;;;;;;;5151492;27;20465;-71
2022/10/14 12:07:03;;;;;;;6.68;4.82;;;;;;;;;;5151757;27;20404;-71
2022/10/14 12:10:04;;;;;;;9.60;5.32;;;;;;;;;;5151582;27;20491;-71
2022/10/14 12:12:50;;;;;;;15.80;5.47;;;;;;;;;;5152031;27;20023;-71
2022/10/14 12:15:39;;;;;;;12.65;5.50;;;;;;;;;;5152144;27;20105;-71
2022/10/14 12:18:25;;;;;;;6.65;4.70;;;;;;;;;;5142611;27;20018;-71
2022/10/14 12:21:20;;;;;;;7.18;4.68;;;;;;;;;;5172842;27;20102;-71
2022/10/14 12:24:09;;;;;;;8.95;4.90;;;;;;;;;;5171622;27;20061;-72
2022/10/14 12:26:56;;;;;;;5.45;4.38;;;;;;;;;;5160585;27;20022;-71
2022/10/14 12:29:43;;;;;;;7.03;4.32;;;;;;;;;;5171919;27;20030;-70
2022/10/14 12:32:29;;;;;;;8.60;4.20;;;;;;;;;;5171749;27;20025;-71
2022/10/14 12:35:33;;;;;;;7.28;4.13;;;;;;;;;;5156991;27;20014;-70
2022/10/14 12:38:20;;;;;;;10.38;4.20;;;;;;;;;;5120982;28;20381;-71
2022/10/14 12:41:26;;;;;;;10.00;4.05;;;;;;;;;;5116561;28;20058;-70
2022/10/14 12:44:14;;;;;;;6.68;3.90;;;;;;;;;;5116776;28;20424;-71
2022/10/14 12:46:59;;;;;;;6.07;4.30;;;;;;;;;;5116415;28;20023;-71
2022/10/14 12:49:47;;;;;;;7.85;4.43;;;;;;;;;;5116352;28;20016;-71
2022/10/14 12:52:34;;;;;;;8.98;4.65;;;;;;;;;;5115906;28;20020;-69
2022/10/14 12:55:21;;;;;;;8.68;5.07;;;;;;;;;;5116725;28;20030;-72
2022/10/14 12:58:15;;;;;;;8.88;4.53;;;;;;;;;;5115621;28;20031;-72
2022/10/14 13:01:02;;;;;;;10.27;5.63;;;;;;;;;;5116135;28;20027;-72
2022/10/14 13:03:54;;;;;;;9.15;5.57;;;;;;;;;;5116171;28;20027;-71
2022/10/14 13:06:41;;;;;;;11.10;5.60;;;;;;;;;;5114846;28;20019;-71
2022/10/14 13:09:31;;;;;;;14.18;5.35;;;;;;;;;;5116385;28;20058;-70
2022/10/14 13:12:19;;;;;;;14.27;6.00;;;;;;;;;;5118478;28;20432;-72
2022/10/14 13:15:23;;;;;;;11.77;5.38;;;;;;;;;;5115370;28;20007;-70
2022/10/14 13:18:24;;;;;;;14.35;6.45;;;;;;;;;;5115458;28;20102;-71
2022/10/14 13:21:24;;;;;;;11.25;6.03;;;;;;;;;;5115087;28;20019;-70
2022/10/14 13:24:15;;;;;;;16.58;7.80;;;;;;;;;;5116166;28;20015;-69
2022/10/14 13:27:06;;;;;;;13.95;6.63;;;;;;;;;;5115176;28;20028;-70
2022/10/14 13:30:10;;;;;;;13.50;6.35;;;;;;;;;;5116329;28;20011;-70
2022/10/14 13:33:03;;;;;;;9.88;4.20;;;;;;;;;;5115557;28;20371;-70
2022/10/14 13:35:57;;;;;;;8.95;4.85;;;;;;;;;;5114791;27;20023;-71
2022/10/14 13:38:45;;;;;;;13.75;4.60;;;;;;;;;;5157173;27;20371;-70
2022/10/14 13:41:33;;;;;;;10.43;4.70;;;;;;;;;;5141280;27;20029;-72
2022/10/14 13:44:21;;;;;;;7.97;4.47;;;;;;;;;;5156854;27;20019;-71
2022/10/14 13:47:11;;;;;;;12.98;4.35;;;;;;;;;;5142126;27;20018;-72
2022/10/14 13:49:56;;;;;;;7.05;4.43;;;;;;;;;;5155806;27;20019;-70
2022/10/14 13:52:44;;;;;;;7.88;4.32;;;;;;;;;;5142463;27;20019;-73
2022/10/14 13:55:30;;;;;;;9.25;4.30;;;;;;;;;;5156633;27;20023;-72
2022/10/14 13:58:16;;;;;;;9.63;4.88;;;;;;;;;;5155860;27;20011;-72
2022/10/14 14:01:03;;;;;;;9.27;5.22;;;;;;;;;;5157101;27;20011;-72
2022/10/14 14:03:50;;;;;;;9.88;4.28;;;;;;;;;;5140554;27;20078;-70
2022/10/14 14:06:42;;;;;;;7.90;4.47;;;;;;;;;;5157266;27;20049;-69
2022/10/14 14:09:28;;;;;;;7.55;4.07;;;;;;;;;;5140552;27;20022;-69
2022/10/14 14:12:14;;;;;;;10.38;4.90;;;;;;;;;;5156345;27;20022;-69
2022/10/14 14:15:00;;;;;;;13.68;5.30;;;;;;;;;;5155855;27;20025;-69
2022/10/14 14:17:45;;;;;;;9.98;4.32;;;;;;;;;;5140172;27;20015;-70
2022/10/14 14:20:32;;;;;;;11.73;5.00;;;;;;;;;;5155228;27;20022;-68
2022/10/14 14:23:18;;;;;;;11.55;5.20;;;;;;;;;;5156651;27;20091;-69
2022/10/14 14:26:03;;;;;;;8.52;4.72;;;;;;;;;;5155213;27;20407;-69
2022/10/14 14:28:49;;;;;;;8.27;4.78;;;;;;;;;;5154852;27;20041;-68
2022/10/14 14:31:36;;;;;;;12.25;4.40;;;;;;;;;;5155939;27;20011;-69
2022/10/14 14:34:22;;;;;;;6.88;3.90;;;;;;;;;;5155405;27;20026;-68
2022/10/14 14:37:12;;;;;;;6.78;4.32;;;;;;;;;;5155058;27;20151;-69
2022/10/14 14:40:01;;;;;;;10.75;4.65;;;;;;;;;;5156604;27;20015;-70
2022/10/14 14:42:48;;;;;;;10.80;4.65;;;;;;;;;;5156041;27;20041;-71
2022/10/14 14:45:39;;;;;;;16.63;4.30;;;;;;;;;;5155471;27;20018;-71
2022/10/14 14:48:25;;;;;;;7.95;3.45;;;;;;;;;;5155877;27;20021;-71
2022/10/14 14:51:12;;;;;;;8.45;3.17;;;;;;;;;;5156021;27;20019;-73
2022/10/14 14:53:57;;;;;;;7.95;3.80;;;;;;;;;;5154796;27;20019;-72
2022/10/14 14:56:46;;;;;;;6.50;3.97;;;;;;;;;;5155367;27;20367;-71
2022/10/14 14:59:31;;;;;;;9.07;4.40;;;;;;;;;;5140182;27;20031;-72
2022/10/14 15:02:18;;;;;;;7.80;4.22;;;;;;;;;;5154843;27;20208;-73
2022/10/14 15:05:08;;;;;;;9.70;4.45;;;;;;;;;;5155364;27;20050;-71
2022/10/14 15:07:54;;;;;;;16.25;8.52;;;;;;;;;;5155073;27;20447;-71
2022/10/14 15:10:44;;;;;;;13.98;7.38;;;;;;;;;;5138961;27;20018;-70
2022/10/14 15:13:41;;;;;;;9.00;5.35;;;;;;;;;;5155108;27;20029;-72
2022/10/14 15:16:40;;;;;;;14.70;5.70;;;;;;;;;;5155567;27;20019;-72
2022/10/14 15:19:27;;;;;;;17.00;6.80;;;;;;;;;;5155232;27;20168;-71
2022/10/14 15:22:15;;;;;;;18.38;6.78;;;;;;;;;;5154989;27;20023;-71
2022/10/14 15:25:08;;;;;;;17.33;6.03;;;;;;;;;;5155066;27;20015;-71
2022/10/14 15:27:54;;;;;;;16.63;6.35;;;;;;;;;;5154449;27;20022;-70
2022/10/14 15:30:40;;;;;;;15.57;6.97;;;;;;;;;;5154846;27;20412;-70
2022/10/14 15:33:26;;;;;;;16.58;7.18;;;;;;;;;;5154966;27;20026;-69
2022/10/14 15:36:11;;;;;;;18.83;7.20;;;;;;;;;;5155251;27;20540;-73
2022/10/14 15:38:59;;;;;;;16.13;6.88;;;;;;;;;;5141022;27;20026;-73
2022/10/14 15:41:45;;;;;;;19.17;7.88;;;;;;;;;;5157012;27;20083;-75
2022/10/14 15:44:30;;;;;;;17.45;7.53;;;;;;;;;;5139882;27;20015;-70
2022/10/14 15:47:18;;;;;;;14.52;6.95;;;;;;;;;;5154439;27;20573;-71
2022/10/14 15:50:06;;;;;;;12.93;6.35;;;;;;;;;;5155995;27;20015;-71
2022/10/14 15:52:53;;;;;;;13.38;6.10;;;;;;;;;;5154656;27;20411;-70
2022/10/14 15:55:38;;;;;;;12.50;6.30;;;;;;;;;;5139729;27;20034;-71
2022/10/14 15:58:24;;;;;;;9.30;5.90;;;;;;;;;;5154851;27;20011;-71
2022/10/14 16:01:14;;;;;;;12.35;6.28;;;;;;;;;;5154695;27;20026;-70
2022/10/14 16:04:00;;;;;;;13.48;6.82;;;;;;;;;;5154654;27;20398;-71
2022/10/14 16:06:45;;;;;;;11.30;6.65;;;;;;;;;;5140154;27;20455;-70
2022/10/14 16:09:31;;;;;;;18.90;7.60;;;;;;;;;;5155117;27;20022;-71
2022/10/14 16:12:16;;;;;;;13.43;7.07;;;;;;;;;;5154216;27;20383;-70
2022/10/14 16:15:02;;;;;;;16.60;7.50;;;;;;;;;;5158382;27;20424;-70
2022/10/14 16:17:48;;;;;;;14.10;6.80;;;;;;;;;;5144711;27;20359;-71
2022/10/14 16:20:34;;;;;;;19.88;7.47;;;;;;;;;;5158052;27;20014;-71
2022/10/14 16:23:21;;;;;;;16.83;7.32;;;;;;;;;;5158403;27;20091;-70
2022/10/14 16:26:07;;;;;;;14.30;7.75;;;;;;;;;;5158245;27;20034;-70
2022/10/14 16:28:53;;;;;;;17.25;8.05;;;;;;;;;;5142556;27;20038;-70
2022/10/14 16:31:38;;;;;;;22.77;8.57;;;;;;;;;;5143982;27;20457;-70
2022/10/14 16:34:24;;;;;;;23.25;8.75;;;;;;;;;;5158077;27;20351;-70
2022/10/14 16:37:10;;;;;;;22.88;8.88;;;;;;;;;;5158462;27;20089;-70
2022/10/14 16:39:55;;;;;;;18.58;8.80;;;;;;;;;;5157693;27;20011;-70
2022/10/14 16:42:41;;;;;;;22.85;9.20;;;;;;;;;;5158371;27;20087;-70
2022/10/14 16:45:26;;;;;;;21.42;8.90;;;;;;;;;;5158069;27;20022;-71
2022/10/14 16:48:12;;;;;;;21.02;8.43;;;;;;;;;;5142635;27;20065;-71
2022/10/14 16:50:57;;;;;;;23.27;8.60;;;;;;;;;;5143227;27;20102;-71
2022/10/14 16:53:44;;;;;;;21.85;8.45;;;;;;;;;;5157639;27;20022;-70